createdAt,value
2019-05-02T00:01:30.226Z,40.50
2019-05-02T00:04:00.138Z,41.10
2019-05-02T00:06:31.657Z,41.80
2019-05-02T00:09:04.050Z,41.90
2019-05-02T00:11:35.637Z,43.00
2019-05-02T00:14:06.125Z,43.40
2019-05-02T00:16:37.387Z,44.90
2019-05-02T00:19:09.086Z,48.30
2019-05-02T00:21:42.711Z,49.70
2019-05-02T00:24:11.911Z,52.60
2019-05-02T00:26:41.730Z,54.60
2019-05-02T00:29:11.804Z,57.90
2019-05-02T00:31:46.725Z,60.10
2019-05-02T00:34:13.548Z,60.40
2019-05-02T00:36:43.440Z,60.90
2019-05-02T00:39:15.074Z,63.70
2019-05-02T00:41:45.054Z,64.10
2019-05-02T00:44:14.915Z,66.60
2019-05-02T00:46:44.816Z,67.60
2019-05-02T00:49:14.555Z,67.50
2019-05-02T00:51:44.431Z,68.20
2019-05-02T00:54:14.260Z,68.90
2019-05-02T00:56:45.298Z,68.40
2019-05-02T00:59:15.257Z,68.40
2019-05-02T01:01:46.686Z,68.90
2019-05-02T01:04:18.148Z,70.90
2019-05-02T01:06:49.420Z,71.80
2019-05-02T01:09:19.350Z,71.90
2019-05-02T01:11:49.685Z,73.20
2019-05-02T01:14:19.514Z,72.00
2019-05-02T01:16:53.878Z,70.70
2019-05-02T01:19:21.028Z,71.20
2019-05-02T01:21:50.883Z,71.80
2019-05-02T01:24:20.748Z,72.60
2019-05-02T01:26:52.174Z,71.00
2019-05-02T01:29:24.826Z,71.90
2019-05-02T01:31:56.780Z,70.60
2019-05-02T01:34:28.140Z,71.20
2019-05-02T01:36:59.474Z,72.70
2019-05-02T01:39:29.181Z,72.80
2019-05-02T01:42:00.061Z,72.40
2019-05-02T01:44:31.223Z,73.50
2019-05-02T01:47:01.814Z,74.60
2019-05-02T01:49:31.710Z,74.10
2019-05-02T01:52:01.420Z,75.00
2019-05-02T01:54:31.257Z,76.80
2019-05-02T01:57:04.041Z,77.10
2019-05-02T01:59:33.897Z,76.10
2019-05-02T02:02:04.300Z,77.10
2019-05-02T02:04:34.591Z,78.40
2019-05-02T02:07:05.024Z,77.60
2019-05-02T02:09:38.897Z,78.00
2019-05-02T02:12:09.920Z,78.00
2019-05-02T02:14:37.740Z,77.40
2019-05-02T02:17:10.183Z,77.80
2019-05-02T02:19:40.750Z,77.90
2019-05-02T02:22:12.233Z,78.90
2019-05-02T02:24:43.635Z,78.50
2019-05-02T02:27:13.553Z,79.20
2019-05-02T02:29:43.935Z,78.40
2019-05-02T02:32:20.213Z,78.30
2019-05-02T02:34:46.539Z,79.60
2019-05-02T02:37:16.392Z,79.80
2019-05-02T02:39:48.714Z,79.70
2019-05-02T02:42:17.404Z,80.50
2019-05-02T02:44:48.902Z,79.50
2019-05-02T02:47:20.918Z,79.40
2019-05-02T02:49:55.751Z,78.70
2019-05-02T02:52:21.565Z,79.60
2019-05-02T02:54:51.405Z,80.10
2019-05-02T02:57:26.314Z,80.80
2019-05-02T02:59:52.756Z,80.90
2019-05-02T03:02:22.655Z,81.30
2019-05-02T03:04:52.696Z,81.30
2019-05-02T03:07:26.212Z,81.40
2019-05-02T03:09:59.731Z,81.20
2019-05-02T03:15:20.962Z,82.10
2019-05-02T03:17:47.050Z,82.00
2019-05-02T03:20:17.013Z,82.00
2019-05-02T03:22:46.833Z,81.90
2019-05-02T03:25:18.031Z,82.30
2019-05-02T03:27:48.043Z,82.60
2019-05-02T03:30:32.194Z,82.00
2019-05-02T03:33:02.801Z,81.50
2019-05-02T03:35:40.098Z,81.80
2019-05-02T03:37:53.828Z,82.10
2019-05-02T03:40:23.761Z,82.00
2019-05-02T03:42:53.626Z,82.10
2019-05-02T03:45:23.783Z,82.00
2019-05-02T03:47:54.104Z,82.00
2019-05-02T03:50:31.683Z,81.70
2019-05-02T03:52:55.476Z,81.70
2019-05-02T03:55:30.704Z,81.30
2019-05-02T03:57:57.512Z,81.70
2019-05-02T04:00:27.368Z,81.10
2019-05-02T04:03:00.858Z,81.70
2019-05-02T04:05:33.798Z,81.50
2019-05-02T04:08:00.141Z,81.30
2019-05-02T04:13:10.901Z,81.40
2019-05-02T04:15:40.947Z,81.50
2019-05-02T04:18:15.386Z,81.20
2019-05-02T04:20:43.632Z,81.00
2019-05-02T04:23:14.768Z,81.40
2019-05-02T04:25:45.106Z,80.80
2019-05-02T04:28:14.983Z,80.90
2019-05-02T04:30:45.348Z,80.50
2019-05-02T04:33:16.280Z,80.20
2019-05-02T04:35:46.197Z,80.40
2019-05-02T04:38:21.306Z,80.40
2019-05-02T04:40:49.538Z,80.50
2019-05-02T04:43:19.614Z,80.30
2019-05-02T04:45:56.114Z,81.00
2019-05-02T04:48:20.779Z,81.20
2019-05-02T04:50:51.661Z,81.00
2019-05-02T04:53:25.646Z,81.20
2019-05-02T04:56:01.523Z,80.80
2019-05-02T04:58:31.447Z,80.00
2019-05-02T05:01:01.000Z,80.80
2019-05-02T05:03:28.487Z,81.00
2019-05-02T05:05:59.498Z,80.70
2019-05-02T05:08:31.863Z,81.20
2019-05-02T05:11:01.673Z,80.80
2019-05-02T05:13:31.503Z,81.00
2019-05-02T05:16:02.995Z,80.50
2019-05-02T05:18:32.686Z,80.30
2019-05-02T05:21:02.592Z,79.70
2019-05-02T05:23:34.021Z,79.00
2019-05-02T05:26:04.799Z,80.50
2019-05-02T05:28:35.111Z,79.30
2019-05-02T05:31:07.696Z,78.80
2019-05-02T05:33:37.832Z,78.60
2019-05-02T05:36:08.249Z,78.70
2019-05-02T05:38:40.691Z,79.00
2019-05-02T05:41:13.201Z,79.10
2019-05-02T05:43:44.772Z,79.30
2019-05-02T05:46:13.349Z,79.40
2019-05-02T05:48:43.206Z,78.50
2019-05-02T05:51:17.022Z,77.60
2019-05-02T05:53:44.453Z,76.20
2019-05-02T05:56:14.275Z,76.60
2019-05-02T05:58:48.160Z,76.10
2019-05-02T06:01:17.695Z,76.40
2019-05-02T06:03:47.426Z,76.00
2019-05-02T06:06:22.368Z,75.60
2019-05-02T06:08:49.172Z,75.60
2019-05-02T06:11:21.767Z,75.60
2019-05-02T06:13:51.805Z,76.10
2019-05-02T06:16:21.837Z,75.30
2019-05-02T06:18:52.780Z,75.40
2019-05-02T06:21:22.671Z,75.30
2019-05-02T06:23:52.490Z,73.90
2019-05-02T06:26:22.309Z,74.30
2019-05-02T06:28:52.216Z,73.80
2019-05-02T06:31:22.083Z,74.20
2019-05-02T06:33:51.802Z,74.20
2019-05-02T06:36:22.155Z,73.00
2019-05-02T06:38:56.183Z,72.50
2019-05-02T06:41:24.401Z,72.70
2019-05-02T06:43:55.115Z,73.60
2019-05-02T06:46:27.706Z,71.00
2019-05-02T06:48:56.554Z,71.30
2019-05-02T06:51:26.255Z,70.70
2019-05-02T06:53:56.194Z,70.90
2019-05-02T06:56:27.109Z,69.90
2019-05-02T06:58:57.970Z,70.00
2019-05-02T07:01:27.892Z,70.80
2019-05-02T07:03:57.629Z,70.50
2019-05-02T07:06:27.841Z,71.60
2019-05-02T07:08:59.640Z,71.20
2019-05-02T07:11:33.223Z,71.20
2019-05-02T07:14:12.397Z,71.60
2019-05-02T07:16:38.401Z,72.40
2019-05-02T07:19:07.115Z,73.00
2019-05-02T07:21:36.951Z,73.30
2019-05-02T07:24:06.656Z,73.50
2019-05-02T07:26:36.478Z,73.70
2019-05-02T07:29:06.291Z,73.80
2019-05-02T07:31:35.963Z,73.60
2019-05-02T07:34:08.027Z,73.50
2019-05-02T07:36:38.367Z,73.50
2019-05-02T07:39:10.597Z,74.30
2019-05-02T07:41:40.245Z,74.20
2019-05-02T07:44:10.465Z,74.30
2019-05-02T07:46:51.230Z,74.60
2019-05-02T07:49:11.784Z,75.00
2019-05-02T07:51:42.738Z,75.30
2019-05-02T07:54:12.488Z,76.30
2019-05-02T07:56:42.366Z,75.50
2019-05-02T07:59:12.128Z,76.10
2019-05-02T08:01:44.880Z,76.60
2019-05-02T08:04:13.579Z,76.50
2019-05-02T08:06:46.096Z,76.30
2019-05-02T08:09:16.015Z,76.50
2019-05-02T08:11:46.008Z,76.40
2019-05-02T08:14:15.962Z,76.50
2019-05-02T08:16:49.135Z,75.70
2019-05-02T08:19:19.041Z,76.30
2019-05-02T08:21:48.920Z,76.50
2019-05-02T08:24:18.796Z,76.20
2019-05-02T08:26:53.383Z,76.00
2019-05-02T08:29:26.918Z,76.60
2019-05-02T08:31:53.056Z,76.90
2019-05-02T08:34:24.472Z,77.00
2019-05-02T08:36:54.084Z,76.80
2019-05-02T08:39:26.024Z,76.10
2019-05-02T08:41:56.427Z,76.70
2019-05-02T08:44:27.059Z,76.20
2019-05-02T08:46:56.903Z,75.60
2019-05-02T08:49:26.785Z,76.10
2019-05-02T08:51:56.712Z,76.30
2019-05-02T08:54:28.081Z,75.00
2019-05-02T08:57:00.597Z,74.70
2019-05-02T08:59:30.532Z,74.20
2019-05-02T09:02:00.477Z,73.20
2019-05-02T09:04:30.709Z,72.70
2019-05-02T09:07:00.894Z,72.90
2019-05-02T09:09:31.876Z,72.90
2019-05-02T09:12:11.974Z,72.70
2019-05-02T09:14:33.271Z,72.40
2019-05-02T09:17:08.574Z,71.50
2019-05-02T09:19:35.605Z,71.30
2019-05-02T09:22:07.730Z,70.90
2019-05-02T09:24:37.040Z,71.20
2019-05-02T09:27:06.962Z,71.70
2019-05-02T09:29:37.445Z,71.60
2019-05-02T09:32:08.281Z,71.20
2019-05-02T09:34:38.135Z,71.60
2019-05-02T09:37:07.955Z,71.90
2019-05-02T09:39:37.762Z,71.90
2019-05-02T09:42:12.405Z,72.20
2019-05-02T09:44:39.123Z,72.40
2019-05-02T09:47:12.731Z,71.60
2019-05-02T09:49:48.930Z,71.80
2019-05-02T09:52:13.727Z,71.90
2019-05-02T09:54:46.135Z,72.10
2019-05-02T09:57:14.807Z,72.00
2019-05-02T09:59:50.271Z,71.60
2019-05-02T10:02:16.252Z,71.40
2019-05-02T10:04:46.160Z,71.20
2019-05-02T10:07:16.031Z,71.40
2019-05-02T10:09:45.964Z,70.50
2019-05-02T10:12:15.871Z,69.90
2019-05-02T10:14:45.786Z,70.00
2019-05-02T10:17:18.420Z,69.20
2019-05-02T10:19:48.928Z,69.50
2019-05-02T10:22:18.736Z,69.70
2019-05-02T10:25:03.193Z,69.20
2019-05-02T10:27:33.858Z,69.40
2019-05-02T10:30:11.741Z,68.90
2019-05-02T10:32:37.727Z,68.60
2019-05-02T10:35:09.844Z,68.40
2019-05-02T10:37:39.683Z,68.30
2019-05-02T10:40:13.441Z,68.70
2019-05-02T10:42:42.034Z,69.10
2019-05-02T10:45:17.869Z,68.30
2019-05-02T10:47:47.636Z,68.30
2019-05-02T10:50:19.088Z,69.00
2019-05-02T10:52:49.046Z,68.60
2019-05-02T10:55:21.681Z,68.30
2019-05-02T10:57:52.492Z,68.50
2019-05-02T11:00:24.694Z,68.00
2019-05-02T11:02:56.147Z,67.30
2019-05-02T11:05:27.242Z,66.90
2019-05-02T11:08:01.472Z,66.40
2019-05-02T11:10:28.528Z,66.90
2019-05-02T11:13:01.450Z,67.00
2019-05-02T11:15:33.002Z,66.70
2019-05-02T11:18:03.472Z,66.70
2019-05-02T11:20:33.592Z,66.50
2019-05-02T11:23:03.458Z,66.00
2019-05-02T11:25:33.223Z,65.80
2019-05-02T11:28:07.040Z,65.80
2019-05-02T11:30:36.363Z,65.20
2019-05-02T11:33:06.245Z,66.30
2019-05-02T11:35:41.696Z,66.30
2019-05-02T11:38:08.847Z,66.30
2019-05-02T11:40:39.186Z,65.90
2019-05-02T11:43:08.997Z,65.40
2019-05-02T11:45:38.773Z,65.40
2019-05-02T11:48:11.344Z,66.00
2019-05-02T11:50:42.149Z,66.20
2019-05-02T11:53:23.246Z,65.70
2019-05-02T11:55:43.875Z,66.40
2019-05-02T11:58:13.615Z,66.40
2019-05-02T12:00:45.430Z,65.60
2019-05-02T12:03:16.494Z,65.90
2019-05-02T12:05:46.271Z,66.60
2019-05-02T12:08:16.012Z,67.10
2019-05-02T12:10:46.282Z,67.40
2019-05-02T12:13:16.337Z,68.20
2019-05-02T12:15:46.335Z,69.20
2019-05-02T12:18:16.343Z,69.40
2019-05-02T12:20:46.123Z,69.70
2019-05-02T12:23:16.024Z,69.80
2019-05-02T12:25:45.768Z,70.90
2019-05-02T12:28:15.682Z,71.80
2019-05-02T12:30:45.565Z,73.00
2019-05-02T12:33:15.641Z,73.00
2019-05-02T12:35:45.465Z,71.70
2019-05-02T12:38:15.284Z,71.70
2019-05-02T12:40:45.250Z,72.50
2019-05-02T12:43:15.025Z,72.50
2019-05-02T12:45:44.911Z,72.90
2019-05-02T12:48:14.753Z,72.10
2019-05-02T12:50:44.411Z,72.50
2019-05-02T12:53:14.366Z,72.10
2019-05-02T12:55:45.235Z,73.10
2019-05-02T12:58:25.233Z,73.50
2019-05-02T13:00:55.007Z,74.10
2019-05-02T13:03:26.438Z,75.10
2019-05-02T13:05:56.130Z,73.80
2019-05-02T13:08:25.871Z,73.40
2019-05-02T13:11:02.046Z,73.30
2019-05-02T13:13:28.682Z,74.00
2019-05-02T13:16:00.751Z,74.10
2019-05-02T13:18:34.816Z,73.10
2019-05-02T13:21:02.819Z,72.90
2019-05-02T13:23:37.113Z,72.50
2019-05-02T13:26:18.450Z,72.50
2019-05-02T13:28:37.422Z,72.60
2019-05-02T13:31:08.964Z,72.10
2019-05-02T13:33:40.407Z,72.50
2019-05-02T13:36:13.140Z,72.10
2019-05-02T13:38:43.033Z,72.10
2019-05-02T13:41:12.767Z,71.60
2019-05-02T13:43:44.207Z,70.50
2019-05-02T13:46:15.533Z,70.40
2019-05-02T13:48:45.486Z,70.40
2019-05-02T13:51:15.590Z,69.80
2019-05-02T13:53:48.442Z,70.10
2019-05-02T13:56:21.932Z,70.30
2019-05-02T13:58:52.023Z,72.60
2019-05-02T14:01:22.938Z,74.00
2019-05-02T14:03:55.498Z,73.80
2019-05-02T14:06:29.799Z,73.60
2019-05-02T14:08:57.158Z,72.80
2019-05-02T14:11:28.679Z,72.70
2019-05-02T14:13:58.481Z,71.40
2019-05-02T14:16:28.207Z,71.50
2019-05-02T14:18:57.946Z,71.00
2019-05-02T14:21:27.710Z,71.10
2019-05-02T14:23:58.628Z,71.00
2019-05-02T14:26:30.701Z,70.50
2019-05-02T14:28:59.760Z,69.50
2019-05-02T14:31:29.669Z,69.10
2019-05-02T14:34:02.202Z,69.20
2019-05-02T14:36:32.563Z,68.50
2019-05-02T14:39:05.523Z,68.90
2019-05-02T14:41:41.166Z,69.20
2019-05-02T14:44:08.508Z,69.10
2019-05-02T14:46:39.646Z,68.40
2019-05-02T14:49:11.929Z,66.80
2019-05-02T14:51:41.823Z,65.10
2019-05-02T14:54:12.156Z,64.80
2019-05-02T14:59:29.078Z,65.20
2019-05-02T15:02:03.841Z,66.60
2019-05-02T15:04:32.249Z,69.90
2019-05-02T15:07:02.363Z,74.10
2019-05-02T15:09:33.355Z,76.20
2019-05-02T15:12:13.942Z,74.70
2019-05-02T15:14:35.746Z,77.10
2019-05-02T15:17:07.245Z,78.80
2019-05-02T15:19:37.035Z,79.60
2019-05-02T15:22:07.161Z,79.80
2019-05-02T15:24:38.094Z,79.00
2019-05-02T15:27:16.566Z,78.60
2019-05-02T15:29:39.399Z,78.70
2019-05-02T15:32:12.525Z,77.40
2019-05-02T15:34:47.879Z,78.00
2019-05-02T15:37:16.955Z,76.70
2019-05-02T15:42:22.887Z,76.80
2019-05-02T15:44:52.122Z,74.90
2019-05-02T15:47:22.518Z,75.20
2019-05-02T15:49:52.836Z,73.70
2019-05-02T15:52:27.788Z,73.00
2019-05-02T15:55:02.105Z,72.20
2019-05-02T15:57:28.275Z,71.50
2019-05-02T15:59:58.037Z,71.80
2019-05-02T16:02:29.539Z,72.20
2019-05-02T16:05:02.368Z,70.40
2019-05-02T16:07:32.611Z,72.60
2019-05-02T16:10:03.981Z,70.60
2019-05-02T16:12:36.035Z,70.40
2019-05-02T16:15:13.298Z,70.80
2019-05-02T16:17:38.220Z,70.70
2019-05-02T16:20:11.284Z,72.00
2019-05-02T16:22:46.352Z,71.60
2019-05-02T16:25:13.928Z,69.70
2019-05-02T16:27:45.636Z,70.30
2019-05-02T16:30:22.156Z,69.20
2019-05-02T16:32:53.420Z,68.70
2019-05-02T16:35:24.972Z,69.80
2019-05-02T16:37:56.179Z,70.10
2019-05-02T16:40:29.749Z,70.80
2019-05-02T16:42:58.535Z,70.40
2019-05-02T16:45:28.356Z,70.80
2019-05-02T16:48:00.107Z,72.30
2019-05-02T16:50:35.151Z,72.60
2019-05-02T16:53:02.249Z,72.20
2019-05-02T16:55:32.819Z,71.40
2019-05-02T16:58:07.034Z,72.80
2019-05-02T17:00:36.938Z,72.10
2019-05-02T17:03:05.942Z,72.20
2019-05-02T17:05:39.488Z,70.60
2019-05-02T17:08:10.715Z,70.50
2019-05-02T17:10:42.324Z,70.70
2019-05-02T17:13:12.634Z,70.30
2019-05-02T17:15:42.833Z,70.40
2019-05-02T17:18:15.319Z,70.60
2019-05-02T17:20:46.923Z,71.00
2019-05-02T17:23:15.656Z,71.30
2019-05-02T17:25:45.484Z,71.60
2019-05-02T17:28:16.467Z,71.70
2019-05-02T17:30:46.262Z,70.60
2019-05-02T17:33:16.541Z,70.40
2019-05-02T17:35:51.272Z,69.60
2019-05-02T17:38:23.476Z,69.20
2019-05-02T17:40:53.858Z,69.50
2019-05-02T17:43:27.340Z,69.80
2019-05-02T17:45:58.588Z,69.50
2019-05-02T17:48:29.387Z,68.30
2019-05-02T17:51:02.172Z,68.30
2019-05-02T17:53:42.724Z,68.90
2019-05-02T17:56:07.202Z,68.20
2019-05-02T17:58:39.662Z,68.10
2019-05-02T18:01:10.329Z,68.90
2019-05-02T18:03:42.365Z,68.60
2019-05-02T18:06:13.295Z,68.20
2019-05-02T18:08:46.356Z,68.70
2019-05-02T18:11:14.667Z,68.70
2019-05-02T18:13:44.549Z,68.80
2019-05-02T18:16:16.600Z,68.80
2019-05-02T18:18:46.859Z,69.00
2019-05-02T18:21:17.741Z,68.80
2019-05-02T18:23:48.255Z,70.70
2019-05-02T18:26:18.230Z,69.80
2019-05-02T18:28:49.453Z,69.70
2019-05-02T18:31:19.407Z,70.40
2019-05-02T18:33:49.223Z,70.50
2019-05-02T18:36:23.875Z,69.80
2019-05-02T18:38:52.470Z,69.50
2019-05-02T18:41:22.399Z,70.10
2019-05-02T18:43:52.503Z,69.90
2019-05-02T18:46:22.406Z,69.80
2019-05-02T18:48:53.377Z,69.60
2019-05-02T18:51:23.043Z,68.20
2019-05-02T18:53:53.056Z,69.70
2019-05-02T18:56:22.919Z,69.70
2019-05-02T18:58:53.480Z,68.80
2019-05-02T19:01:23.459Z,70.30
2019-05-02T19:03:56.179Z,70.90
2019-05-02T19:06:27.928Z,70.90
2019-05-02T19:08:59.472Z,69.90
2019-05-02T19:11:33.670Z,70.10
2019-05-02T19:14:02.569Z,69.00
2019-05-02T19:16:32.394Z,69.50
2019-05-02T19:19:02.339Z,70.10
2019-05-02T19:21:36.786Z,68.70
2019-05-02T19:24:03.845Z,69.50
2019-05-02T19:26:33.715Z,69.60
2019-05-02T19:29:08.416Z,68.50
2019-05-02T19:31:44.327Z,69.10
2019-05-02T19:34:11.725Z,68.20
2019-05-02T19:36:43.431Z,68.10
2019-05-02T19:39:12.962Z,68.40
2019-05-02T19:41:43.874Z,68.70
2019-05-02T19:44:15.369Z,68.60
2019-05-02T19:46:45.415Z,68.60
2019-05-02T19:49:16.255Z,69.60
2019-05-02T19:51:50.465Z,68.90
2019-05-02T19:54:18.705Z,68.50
2019-05-02T19:56:48.445Z,69.40
2019-05-02T19:59:22.437Z,69.20
2019-05-02T20:01:49.587Z,69.10
2019-05-02T20:04:19.465Z,69.00
2019-05-02T20:06:49.247Z,69.60
2019-05-02T20:09:19.271Z,70.60
2019-05-02T20:11:49.271Z,70.20
2019-05-02T20:14:21.697Z,70.20
2019-05-02T20:16:54.180Z,70.30
2019-05-02T20:19:26.890Z,71.10
2019-05-02T20:21:57.145Z,71.50
2019-05-02T20:24:29.095Z,71.20
2019-05-02T20:26:59.084Z,72.50
2019-05-02T20:29:28.725Z,71.00
2019-05-02T20:31:58.687Z,71.00
2019-05-02T20:34:28.909Z,70.90
2019-05-02T20:36:58.771Z,71.30
2019-05-02T20:39:28.495Z,71.80
2019-05-02T20:41:58.528Z,72.30
2019-05-02T20:44:28.433Z,72.60
2019-05-02T20:46:58.046Z,72.80
2019-05-02T20:49:27.992Z,72.80
2019-05-02T20:51:57.827Z,72.90
2019-05-02T20:54:27.766Z,72.70
2019-05-02T20:56:57.679Z,72.70
2019-05-02T20:59:27.564Z,73.10
2019-05-02T21:01:57.706Z,72.90
2019-05-02T21:04:27.396Z,72.80
2019-05-02T21:06:58.703Z,73.00
2019-05-02T21:09:32.294Z,73.40
2019-05-02T21:12:03.983Z,72.70
2019-05-02T21:14:35.040Z,73.10
2019-05-02T21:17:05.283Z,72.80
2019-05-02T21:19:35.168Z,72.90
2019-05-02T21:22:07.981Z,73.40
2019-05-02T21:24:37.779Z,73.50
2019-05-02T21:27:07.624Z,72.80
2019-05-02T21:29:37.531Z,73.30
2019-05-02T21:32:07.459Z,73.40
2019-05-02T21:34:37.234Z,73.30
2019-05-02T21:37:07.108Z,73.50
2019-05-02T21:39:37.111Z,73.50
2019-05-02T21:42:07.980Z,73.90
2019-05-02T21:44:39.560Z,73.40
2019-05-02T21:47:09.380Z,73.10
2019-05-02T21:49:42.868Z,73.00
2019-05-02T21:52:13.843Z,73.30
2019-05-02T21:54:45.239Z,74.10
2019-05-02T21:57:16.386Z,73.90
2019-05-02T21:59:46.145Z,73.90
2019-05-02T22:02:17.657Z,73.50
2019-05-02T22:04:47.600Z,73.50
2019-05-02T22:07:17.339Z,74.10
2019-05-02T22:09:47.179Z,73.30
2019-05-02T22:12:17.093Z,73.50
2019-05-02T22:14:47.015Z,73.30
2019-05-02T22:17:17.216Z,74.00
2019-05-02T22:19:48.143Z,74.40
2019-05-02T22:22:18.044Z,73.90
2019-05-02T22:24:47.778Z,74.60
2019-05-02T22:27:17.594Z,75.10
2019-05-02T22:29:47.431Z,75.10
2019-05-02T22:32:17.327Z,74.70
2019-05-02T22:34:47.300Z,75.00
2019-05-02T22:37:18.560Z,74.50
2019-05-02T22:39:50.125Z,74.20
2019-05-02T22:42:21.767Z,75.00
2019-05-02T22:44:51.883Z,75.10
2019-05-02T22:47:22.761Z,75.40
2019-05-02T22:49:52.514Z,75.10
2019-05-02T22:52:22.381Z,75.10
2019-05-02T22:54:52.401Z,74.90
2019-05-02T22:57:22.670Z,74.80
2019-05-02T22:59:52.674Z,74.70
2019-05-02T23:02:22.611Z,74.20
2019-05-02T23:04:52.811Z,74.60
2019-05-02T23:07:22.967Z,74.20
2019-05-02T23:09:52.902Z,74.90
2019-05-02T23:12:25.057Z,74.80
2019-05-02T23:14:54.182Z,75.10
2019-05-02T23:17:24.112Z,75.30
2019-05-02T23:19:53.950Z,74.50
2019-05-02T23:22:23.627Z,74.80
2019-05-02T23:24:55.014Z,74.30
2019-05-02T23:27:26.275Z,74.80
2019-05-02T23:29:56.267Z,75.30
2019-05-02T23:32:25.899Z,75.40
2019-05-02T23:34:55.783Z,75.40
2019-05-02T23:37:25.563Z,75.00
2019-05-02T23:39:55.367Z,75.10
2019-05-02T23:42:25.071Z,75.30
2019-05-02T23:44:54.880Z,75.30
2019-05-02T23:47:24.776Z,75.30
2019-05-02T23:49:54.582Z,76.00
2019-05-02T23:52:24.380Z,76.10
2019-05-02T23:54:54.252Z,75.80
2019-05-02T23:57:24.171Z,75.80
2019-05-02T23:59:53.722Z,75.30
